createdAt,value
2023-05-04T00:03:46.995Z,0
2023-05-04T00:08:50.758Z,0
2023-05-04T00:13:54.925Z,0
2023-05-04T00:18:59.173Z,0
2023-05-04T00:24:03.226Z,0
2023-05-04T00:29:05.495Z,0
2023-05-04T00:34:09.657Z,0
2023-05-04T00:39:11.951Z,0
2023-05-04T00:44:16.133Z,0
2023-05-04T00:49:20.274Z,0
2023-05-04T00:54:24.446Z,0
2023-05-04T00:59:28.590Z,0
2023-05-04T01:04:32.767Z,0
2023-05-04T01:09:36.938Z,0
2023-05-04T01:14:41.094Z,0
2023-05-04T01:19:45.277Z,0
2023-05-04T01:24:49.408Z,0
2023-05-04T01:29:53.569Z,0
2023-05-04T01:34:57.728Z,0
2023-05-04T01:40:02.114Z,0
2023-05-04T01:45:06.087Z,0
2023-05-04T01:50:10.210Z,0
2023-05-04T01:55:14.418Z,0
2023-05-04T02:00:18.563Z,0
2023-05-04T02:05:22.728Z,0
2023-05-04T02:10:26.916Z,0
2023-05-04T02:15:31.044Z,0
2023-05-04T02:20:35.258Z,0
2023-05-04T02:25:37.468Z,0
2023-05-04T02:30:41.653Z,0
2023-05-04T02:35:43.930Z,0
2023-05-04T02:40:48.080Z,0
2023-05-04T02:45:52.263Z,0
2023-05-04T02:50:56.390Z,0
2023-05-04T02:56:00.614Z,0
2023-05-04T03:01:04.800Z,0
2023-05-04T03:06:08.915Z,0
2023-05-04T03:11:13.066Z,0
2023-05-04T03:16:17.254Z,0
2023-05-04T03:21:21.449Z,0
2023-05-04T03:26:25.583Z,0
2023-05-04T03:31:29.778Z,1
2023-05-04T03:36:33.922Z,3
2023-05-04T03:41:38.048Z,7
2023-05-04T03:46:42.210Z,16
2023-05-04T03:51:46.359Z,35
2023-05-04T03:56:50.536Z,67
2023-05-04T04:01:54.737Z,105
2023-05-04T04:06:58.886Z,160
2023-05-04T04:12:03.111Z,235
2023-05-04T04:17:07.251Z,332
2023-05-04T04:22:09.471Z,445
2023-05-04T04:27:13.660Z,594
2023-05-04T04:32:15.907Z,783
2023-05-04T04:37:20.074Z,937
2023-05-04T04:42:24.238Z,1000
2023-05-04T04:47:28.457Z,1037
2023-05-04T04:52:32.586Z,1067
2023-05-04T04:57:36.716Z,1131
2023-05-04T05:02:40.917Z,1234
2023-05-04T05:07:45.070Z,1342
2023-05-04T05:12:49.250Z,1477
2023-05-04T05:17:51.537Z,1547
2023-05-04T05:22:55.669Z,1626
2023-05-04T05:27:59.843Z,1734
2023-05-04T05:33:04.070Z,1947
2023-05-04T05:38:08.144Z,2156
2023-05-04T05:43:12.288Z,2445
2023-05-04T05:48:16.563Z,2779
2023-05-04T05:53:20.629Z,3203
2023-05-04T05:58:24.824Z,3565
2023-05-04T06:03:29.077Z,3878
2023-05-04T06:08:33.158Z,4332
2023-05-04T06:13:37.252Z,4730
2023-05-04T06:18:39.556Z,4926
2023-05-04T06:23:43.744Z,4801
2023-05-04T06:28:47.888Z,4510
2023-05-04T06:33:52.083Z,4587
2023-05-04T06:38:56.201Z,4838
2023-05-04T06:44:00.358Z,4919
2023-05-04T06:49:04.534Z,4745
2023-05-04T06:54:08.678Z,4386
2023-05-04T06:59:12.841Z,4235
2023-05-04T07:04:16.987Z,4070
2023-05-04T07:09:21.194Z,4015
2023-05-04T07:14:25.325Z,3923
2023-05-04T07:19:29.472Z,4067
2023-05-04T07:24:33.670Z,4340
2023-05-04T07:29:37.801Z,4397
2023-05-04T07:34:46.275Z,4610
2023-05-04T07:39:46.116Z,4842
2023-05-04T07:44:50.307Z,4969
2023-05-04T07:49:54.423Z,4851
2023-05-04T07:54:58.624Z,5282
2023-05-04T08:00:03.151Z,5518
2023-05-04T08:05:05.023Z,5270
2023-05-04T08:10:09.241Z,5120
2023-05-04T08:15:11.479Z,5217
2023-05-04T08:20:15.621Z,5289
2023-05-04T08:25:19.761Z,5394
2023-05-04T08:30:23.973Z,5795
2023-05-04T08:35:28.145Z,6123
2023-05-04T08:40:32.261Z,6370
2023-05-04T08:45:36.459Z,6291
2023-05-04T08:50:40.578Z,6340
2023-05-04T08:55:44.759Z,6512
2023-05-04T09:00:48.952Z,6218
2023-05-04T09:05:53.046Z,5693
2023-05-04T09:10:57.216Z,5596
2023-05-04T09:16:01.484Z,5446
2023-05-04T09:21:05.534Z,5827
2023-05-04T09:26:09.720Z,6254
2023-05-04T09:31:13.905Z,6156
2023-05-04T09:36:18.030Z,5585
2023-05-04T09:41:22.170Z,5370
2023-05-04T09:46:26.371Z,5127
2023-05-04T09:51:30.500Z,4821
2023-05-04T09:56:34.664Z,4560
2023-05-04T10:01:36.987Z,4481
2023-05-04T10:06:41.074Z,4675
2023-05-04T10:11:43.364Z,4743
2023-05-04T10:16:47.492Z,4643
2023-05-04T10:21:51.679Z,4640
2023-05-04T10:26:55.858Z,4510
2023-05-04T10:32:00.128Z,4628
2023-05-04T10:37:04.180Z,4525
2023-05-04T10:42:08.301Z,4640
2023-05-04T10:47:12.480Z,4723
2023-05-04T10:52:16.613Z,4703
2023-05-04T10:57:20.778Z,4632
2023-05-04T11:02:24.980Z,4654
2023-05-04T11:07:29.106Z,4642
2023-05-04T11:12:33.311Z,4870
2023-05-04T11:17:37.425Z,5475
2023-05-04T11:22:41.558Z,5580
2023-05-04T11:27:45.750Z,5927
2023-05-04T11:32:49.947Z,5943
2023-05-04T11:37:54.046Z,5284
2023-05-04T11:42:58.234Z,4659
2023-05-04T11:48:02.440Z,4368
2023-05-04T11:53:06.529Z,4049
2023-05-04T11:58:08.847Z,3915
2023-05-04T12:03:13.215Z,3943
2023-05-04T12:08:15.247Z,4296
2023-05-04T12:13:19.536Z,4510
2023-05-04T12:18:23.574Z,4693
2023-05-04T12:23:27.703Z,4825
2023-05-04T12:28:31.888Z,5023
2023-05-04T12:33:36.091Z,5123
2023-05-04T12:38:40.219Z,4713
2023-05-04T12:43:44.376Z,4352
2023-05-04T12:48:48.503Z,4510
2023-05-04T12:53:52.669Z,4529
2023-05-04T12:58:56.860Z,4355
2023-05-04T13:04:00.974Z,4120
2023-05-04T13:09:05.137Z,4152
2023-05-04T13:14:09.335Z,4215
2023-05-04T13:19:13.454Z,4358
2023-05-04T13:24:17.636Z,4541
2023-05-04T13:29:21.761Z,4802
2023-05-04T13:34:25.961Z,4923
2023-05-04T13:39:30.120Z,4870
2023-05-04T13:44:34.258Z,4880
2023-05-04T13:49:38.394Z,4748
2023-05-04T13:54:40.667Z,4700
2023-05-04T13:59:58.393Z,4622
2023-05-04T14:04:47.102Z,4740
2023-05-04T14:09:51.307Z,5036
2023-05-04T14:14:53.540Z,5166
2023-05-04T14:19:57.710Z,5437
2023-05-04T14:25:01.850Z,5800
2023-05-04T14:30:06.100Z,6746
2023-05-04T14:35:10.506Z,8927
2023-05-04T14:40:14.454Z,29374
2023-05-04T14:45:18.518Z,32274
2023-05-04T14:50:22.660Z,20804
2023-05-04T14:55:26.852Z,24432
2023-05-04T15:00:30.975Z,20791
2023-05-04T15:05:35.143Z,17322
2023-05-04T15:10:39.319Z,17209
2023-05-04T15:15:43.524Z,15414
2023-05-04T15:20:47.643Z,14716
2023-05-04T15:25:51.780Z,12358
2023-05-04T15:30:55.918Z,21709
2023-05-04T15:36:00.122Z,23931
2023-05-04T15:41:04.243Z,18494
2023-05-04T15:46:08.355Z,15692
2023-05-04T15:51:12.584Z,17085
2023-05-04T15:56:16.692Z,16230
2023-05-04T16:01:18.995Z,13359
2023-05-04T16:06:23.840Z,13527
2023-05-04T16:11:27.319Z,13305
2023-05-04T16:16:29.576Z,13526
2023-05-04T16:21:33.696Z,14943
2023-05-04T16:26:37.900Z,13582
2023-05-04T16:31:42.070Z,12238
2023-05-04T16:36:46.219Z,8946
2023-05-04T16:41:50.372Z,11855
2023-05-04T16:46:54.549Z,9642
2023-05-04T16:51:58.690Z,9173
2023-05-04T16:57:02.852Z,8820
2023-05-04T17:02:07.141Z,7454
2023-05-04T17:07:11.235Z,8249
2023-05-04T17:12:15.295Z,6304
2023-05-04T17:17:19.483Z,8054
2023-05-04T17:22:23.673Z,7525
2023-05-04T17:27:27.818Z,6445
2023-05-04T17:32:32.041Z,5470
2023-05-04T17:37:36.125Z,3718
2023-05-04T17:42:40.293Z,3178
2023-05-04T17:48:03.738Z,2936
2023-05-04T17:52:48.585Z,2777
2023-05-04T17:57:52.734Z,2633
2023-05-04T18:02:55.137Z,2466
2023-05-04T18:07:59.186Z,2228
2023-05-04T18:13:01.492Z,1950
2023-05-04T18:18:05.665Z,1680
2023-05-04T18:23:09.737Z,1497
2023-05-04T18:28:13.916Z,1261
2023-05-04T18:33:18.107Z,1134
2023-05-04T18:38:22.228Z,899
2023-05-04T18:43:26.390Z,702
2023-05-04T18:48:30.712Z,501
2023-05-04T18:53:34.697Z,342
2023-05-04T18:58:38.916Z,229
2023-05-04T19:08:47.314Z,86
2023-05-04T19:13:51.389Z,41
2023-05-04T19:18:55.522Z,22
2023-05-04T19:23:59.820Z,12
2023-05-04T19:29:03.837Z,5
2023-05-04T19:34:07.981Z,2
2023-05-04T19:39:12.154Z,0
2023-05-04T19:44:16.325Z,0
2023-05-04T19:49:20.481Z,0
2023-05-04T19:54:24.649Z,0
2023-05-04T19:59:28.786Z,0
2023-05-04T20:04:31.062Z,0
2023-05-04T20:09:35.218Z,0
2023-05-04T20:14:39.343Z,0
2023-05-04T20:19:41.636Z,0
2023-05-04T20:24:45.839Z,0
2023-05-04T20:29:49.942Z,0
2023-05-04T20:34:54.142Z,0
2023-05-04T20:39:58.340Z,0
2023-05-04T20:45:02.465Z,0
2023-05-04T20:50:06.852Z,0
2023-05-04T20:55:10.740Z,0
2023-05-04T21:00:14.928Z,0
2023-05-04T21:05:19.084Z,0
2023-05-04T21:10:23.253Z,0
2023-05-04T21:15:27.403Z,0
2023-05-04T21:20:31.579Z,0
2023-05-04T21:25:35.748Z,0
2023-05-04T21:30:39.859Z,0
2023-05-04T21:35:44.039Z,0
2023-05-04T21:40:48.202Z,0
2023-05-04T21:45:52.342Z,0
2023-05-04T21:50:56.537Z,0
2023-05-04T21:56:00.690Z,0
2023-05-04T22:01:04.830Z,0
2023-05-04T22:06:07.077Z,0
2023-05-04T22:11:11.276Z,0
2023-05-04T22:16:13.560Z,0
2023-05-04T22:21:17.671Z,0
2023-05-04T22:26:21.836Z,0
2023-05-04T22:31:26.070Z,0
2023-05-04T22:36:30.158Z,0
2023-05-04T22:41:34.342Z,0
2023-05-04T22:46:38.524Z,0
2023-05-04T22:51:42.678Z,0
2023-05-04T22:56:46.811Z,0
2023-05-04T23:01:50.972Z,0
2023-05-04T23:06:55.117Z,0
2023-05-04T23:11:59.257Z,0
2023-05-04T23:17:03.454Z,0
2023-05-04T23:22:07.596Z,0
2023-05-04T23:27:11.782Z,0
2023-05-04T23:32:15.931Z,0
2023-05-04T23:37:20.091Z,0
2023-05-04T23:42:24.220Z,0
2023-05-04T23:47:28.416Z,0
2023-05-04T23:57:34.841Z,0
